Time;durP1;ratioP1;P1;durP2;ratioP2;P2;SDS_P1;SDS_P2;PMS_P1;PMS_P2;Temp;Humidity;BMP_temperature;BMP_pressure;BME280_temperature;BME280_humidity;BME280_pressure;Samples;Min_cycle;Max_cycle;Signal;HPM_P1;HPM_P2
2021/07/31 00:01:06;;;;;;;6.73;5.00;;;16.80;99.90;;;;;;5005241;28;20182;-82
2021/07/31 00:03:32;;;;;;;5.70;5.00;;;16.80;99.90;;;;;;5021514;28;20180;-82
2021/07/31 00:05:58;;;;;;;6.23;4.70;;;16.80;99.90;;;;;;5010198;28;20173;-82
2021/07/31 00:08:24;;;;;;;5.67;4.97;;;16.80;99.90;;;;;;5031484;28;20184;-82
2021/07/31 00:10:50;;;;;;;6.23;4.63;;;16.80;99.90;;;;;;5026438;28;20180;-82
2021/07/31 00:13:16;;;;;;;7.37;5.43;;;16.80;99.90;;;;;;5004798;28;20183;-82
2021/07/31 00:15:41;;;;;;;5.13;4.37;;;16.80;99.90;;;;;;5020294;28;20221;-82
2021/07/31 00:18:07;;;;;;;5.33;4.63;;;16.80;99.90;;;;;;5004017;28;20216;-82
2021/07/31 00:20:33;;;;;;;5.70;4.47;;;16.80;99.90;;;;;;5020014;28;20525;-82
2021/07/31 00:22:58;;;;;;;5.83;5.03;;;16.80;99.90;;;;;;5004753;28;20177;-82
2021/07/31 00:25:24;;;;;;;5.70;5.10;;;16.80;99.90;;;;;;5019407;28;20578;-82
2021/07/31 00:27:50;;;;;;;5.10;4.60;;;16.80;99.90;;;;;;5019388;28;20250;-82
2021/07/31 00:30:15;;;;;;;6.30;5.00;;;16.80;99.90;;;;;;5004173;28;20177;-82
2021/07/31 00:32:41;;;;;;;5.40;4.50;;;16.70;99.90;;;;;;5005239;28;20211;-82
2021/07/31 00:35:07;;;;;;;6.73;4.80;;;16.70;99.90;;;;;;5002636;28;20247;-82
2021/07/31 00:37:33;;;;;;;5.73;4.07;;;16.70;99.90;;;;;;5019210;28;20180;-82
2021/07/31 00:39:58;;;;;;;6.70;4.67;;;16.80;99.90;;;;;;5020071;28;20193;-82
2021/07/31 00:42:24;;;;;;;4.90;4.40;;;16.70;99.90;;;;;;5020906;28;20181;-82
2021/07/31 00:44:50;;;;;;;7.10;4.27;;;16.70;99.90;;;;;;5004744;28;20220;-82
2021/07/31 00:47:16;;;;;;;5.17;4.00;;;16.70;99.90;;;;;;5020282;28;20191;-83
2021/07/31 00:49:43;;;;;;;8.20;4.50;;;16.70;99.90;;;;;;5020636;28;20278;-83
2021/07/31 00:52:09;;;;;;;5.70;4.47;;;16.80;99.90;;;;;;5020210;28;20189;-82
2021/07/31 00:54:35;;;;;;;4.40;4.00;;;16.70;99.90;;;;;;5005176;28;20223;-82
2021/07/31 00:57:01;;;;;;;4.60;3.90;;;16.70;99.90;;;;;;5006018;28;20177;-82
2021/07/31 00:59:27;;;;;;;7.67;4.37;;;16.80;99.90;;;;;;5006246;28;20186;-82
2021/07/31 01:01:53;;;;;;;5.00;4.20;;;16.70;99.90;;;;;;5004275;28;20175;-82
2021/07/31 01:04:19;;;;;;;6.27;4.50;;;16.70;99.90;;;;;;5020135;28;20213;-82
2021/07/31 01:06:46;;;;;;;5.77;4.30;;;16.70;99.90;;;;;;5007457;28;20181;-81
2021/07/31 01:09:12;;;;;;;4.87;4.10;;;16.70;99.90;;;;;;5024479;28;20195;-82
2021/07/31 01:11:38;;;;;;;4.93;3.93;;;16.70;99.90;;;;;;5018197;28;20203;-82
2021/07/31 01:14:04;;;;;;;5.23;4.30;;;16.70;99.90;;;;;;5002218;28;20216;-82
2021/07/31 01:16:30;;;;;;;5.97;4.43;;;16.70;99.90;;;;;;5004465;28;20534;-82
2021/07/31 01:18:56;;;;;;;5.00;4.23;;;16.70;99.90;;;;;;5004687;28;20183;-82
2021/07/31 01:21:36;;;;;;;5.20;4.20;;;16.70;99.90;;;;;;5019327;28;20188;-82
2021/07/31 01:24:02;;;;;;;5.10;4.13;;;16.70;99.90;;;;;;5004599;28;20205;-82
2021/07/31 01:26:28;;;;;;;4.80;4.13;;;16.70;99.90;;;;;;5018330;28;20539;-81
2021/07/31 01:28:54;;;;;;;4.43;4.00;;;16.70;99.90;;;;;;5003210;28;20262;-81
2021/07/31 01:31:19;;;;;;;5.00;4.10;;;16.60;99.90;;;;;;5003411;28;20584;-82
2021/07/31 01:33:45;;;;;;;5.67;4.30;;;16.60;99.90;;;;;;5003075;28;20187;-82
2021/07/31 01:36:11;;;;;;;4.70;4.23;;;16.60;99.90;;;;;;5002227;28;20172;-82
2021/07/31 01:38:37;;;;;;;4.63;4.00;;;16.60;99.90;;;;;;5017927;28;20176;-82
2021/07/31 01:41:02;;;;;;;6.33;4.40;;;16.50;99.90;;;;;;5018982;28;20198;-82
2021/07/31 01:43:28;;;;;;;6.90;4.60;;;16.50;99.90;;;;;;5003459;28;20231;-82
2021/07/31 01:45:55;;;;;;;5.73;4.67;;;16.50;99.90;;;;;;5001172;28;20270;-82
2021/07/31 01:48:20;;;;;;;5.93;3.73;;;16.50;99.90;;;;;;5018010;28;20183;-82
2021/07/31 01:50:46;;;;;;;5.10;4.43;;;16.50;99.90;;;;;;5018068;28;20190;-82
2021/07/31 01:53:12;;;;;;;4.87;4.20;;;16.40;99.90;;;;;;5017049;28;20191;-82
2021/07/31 01:55:37;;;;;;;4.80;4.27;;;16.40;99.90;;;;;;5018077;28;20302;-81
2021/07/31 01:58:03;;;;;;;7.53;4.77;;;16.40;99.90;;;;;;5017577;28;20220;-81
2021/07/31 02:00:29;;;;;;;4.77;4.20;;;16.40;99.90;;;;;;5002923;28;20170;-82
2021/07/31 02:02:54;;;;;;;7.17;4.47;;;16.40;99.90;;;;;;5017337;28;20230;-82
2021/07/31 02:05:20;;;;;;;9.23;4.97;;;16.50;99.90;;;;;;5002462;28;20196;-83
2021/07/31 02:07:46;;;;;;;5.53;4.23;;;16.40;99.90;;;;;;5002668;28;20180;-82
2021/07/31 02:10:11;;;;;;;5.13;4.27;;;16.40;99.90;;;;;;5017830;28;20278;-82
2021/07/31 02:12:37;;;;;;;5.83;4.50;;;16.40;99.90;;;;;;5016275;28;20245;-82
2021/07/31 02:15:03;;;;;;;4.53;4.00;;;16.40;99.90;;;;;;5002808;28;20210;-82
2021/07/31 02:17:28;;;;;;;5.93;3.83;;;16.50;99.90;;;;;;5020924;28;20183;-82
2021/07/31 02:19:54;;;;;;;5.60;4.33;;;16.50;99.90;;;;;;5006114;28;20179;-82
2021/07/31 02:22:20;;;;;;;5.87;4.47;;;16.50;99.90;;;;;;5005071;28;20168;-82
2021/07/31 02:24:45;;;;;;;6.43;4.27;;;16.50;99.90;;;;;;5005864;28;20203;-82
2021/07/31 02:27:11;;;;;;;5.13;4.63;;;16.60;99.90;;;;;;5021537;28;20188;-82
2021/07/31 02:29:37;;;;;;;6.27;4.60;;;16.60;99.90;;;;;;5021044;28;20173;-82
2021/07/31 02:32:03;;;;;;;6.00;4.70;;;16.60;99.90;;;;;;5006597;28;20198;-82
2021/07/31 02:34:28;;;;;;;5.27;3.93;;;16.50;99.90;;;;;;5008886;28;20680;-82
2021/07/31 02:36:54;;;;;;;6.30;4.47;;;16.50;99.90;;;;;;5023615;28;20181;-82
2021/07/31 02:39:19;;;;;;;4.80;4.10;;;16.50;99.90;;;;;;5007258;28;20180;-82
2021/07/31 02:41:45;;;;;;;4.53;3.70;;;16.50;99.90;;;;;;5007654;28;20229;-82
2021/07/31 02:44:11;;;;;;;6.80;4.70;;;16.40;99.90;;;;;;5004470;28;20214;-82
2021/07/31 02:46:38;;;;;;;6.97;4.17;;;16.40;99.90;;;;;;5005950;28;20213;-82
2021/07/31 02:49:03;;;;;;;5.07;4.03;;;16.40;99.90;;;;;;5012028;28;20208;-81
2021/07/31 02:51:29;;;;;;;4.10;3.40;;;16.40;99.90;;;;;;5033212;28;20189;-81
2021/07/31 02:53:54;;;;;;;5.53;4.27;;;16.40;99.90;;;;;;5008657;28;20220;-82
2021/07/31 02:56:20;;;;;;;4.13;3.73;;;16.40;99.90;;;;;;5002293;28;20234;-81
2021/07/31 02:58:46;;;;;;;5.60;3.93;;;16.40;99.90;;;;;;5016624;28;20180;-82
2021/07/31 03:01:11;;;;;;;6.60;4.30;;;16.30;99.90;;;;;;5016196;28;20545;-81
2021/07/31 03:03:37;;;;;;;5.10;3.90;;;16.30;99.90;;;;;;5001813;28;20180;-81
2021/07/31 03:06:03;;;;;;;4.73;3.57;;;16.30;99.90;;;;;;5000069;28;20179;-81
2021/07/31 03:08:29;;;;;;;4.53;3.80;;;16.30;99.90;;;;;;5002417;28;20176;-82
2021/07/31 03:11:07;;;;;;;5.17;3.90;;;16.30;99.90;;;;;;5000218;28;20195;-81
2021/07/31 03:13:32;;;;;;;7.03;4.13;;;16.30;99.90;;;;;;5016573;28;20264;-81
2021/07/31 03:15:58;;;;;;;5.03;3.93;;;16.30;99.90;;;;;;5000906;28;20223;-82
2021/07/31 03:18:24;;;;;;;7.27;3.60;;;16.30;99.90;;;;;;5002418;28;20177;-82
2021/07/31 03:20:53;;;;;;;5.73;4.00;;;16.30;99.90;;;;;;5002492;28;20207;-82
2021/07/31 03:23:22;;;;;;;5.73;3.90;;;16.30;99.90;;;;;;5017844;28;20188;-82
2021/07/31 03:25:48;;;;;;;5.10;4.03;;;16.20;99.90;;;;;;5002744;28;20220;-81
2021/07/31 03:28:14;;;;;;;6.80;3.80;;;16.20;99.90;;;;;;5017807;28;20184;-82
2021/07/31 03:30:41;;;;;;;5.87;3.83;;;16.20;99.90;;;;;;5003577;28;20234;-82
2021/07/31 03:33:08;;;;;;;5.17;3.60;;;16.20;99.90;;;;;;5018185;28;20649;-82
2021/07/31 03:35:35;;;;;;;3.67;3.37;;;16.20;99.90;;;;;;5018334;28;20220;-82
2021/07/31 03:38:00;;;;;;;4.67;3.60;;;16.20;99.90;;;;;;5004025;28;20545;-82
2021/07/31 03:40:26;;;;;;;5.57;4.20;;;16.20;99.90;;;;;;5004448;28;20630;-82
2021/07/31 03:42:51;;;;;;;4.93;3.70;;;16.10;99.90;;;;;;5004213;28;20195;-81
2021/07/31 03:45:17;;;;;;;6.50;3.70;;;16.10;99.90;;;;;;5003636;28;20228;-82
2021/07/31 03:47:43;;;;;;;4.17;3.57;;;16.10;99.90;;;;;;5020558;28;20184;-82
2021/07/31 03:50:09;;;;;;;4.20;3.80;;;16.10;99.90;;;;;;5017337;28;20180;-81
2021/07/31 03:52:35;;;;;;;5.20;4.00;;;16.10;99.90;;;;;;4998889;28;20219;-81
2021/07/31 03:55:00;;;;;;;5.63;4.10;;;16.10;99.90;;;;;;5000714;28;20267;-82
2021/07/31 03:57:27;;;;;;;5.57;4.23;;;16.00;99.90;;;;;;5015887;28;20230;-81
2021/07/31 03:59:53;;;;;;;5.50;4.27;;;16.00;99.90;;;;;;5001034;28;20173;-81
2021/07/31 04:02:19;;;;;;;4.60;4.00;;;16.00;99.90;;;;;;5015437;28;20185;-81
2021/07/31 04:04:44;;;;;;;4.63;4.10;;;16.00;99.90;;;;;;5000027;28;20208;-81
2021/07/31 04:07:10;;;;;;;7.13;4.43;;;16.00;99.90;;;;;;5017341;28;20559;-81
2021/07/31 04:09:36;;;;;;;6.10;4.80;;;16.00;99.90;;;;;;5017021;28;20188;-81
2021/07/31 04:12:02;;;;;;;5.60;4.30;;;15.90;99.90;;;;;;5016112;28;20186;-81
2021/07/31 04:14:29;;;;;;;5.17;4.67;;;15.90;99.90;;;;;;5001657;28;20381;-81
2021/07/31 04:16:54;;;;;;;6.07;4.60;;;15.90;99.90;;;;;;5002773;28;20169;-81
2021/07/31 04:19:20;;;;;;;6.10;4.47;;;15.90;99.90;;;;;;5000623;28;20200;-81
2021/07/31 04:21:46;;;;;;;6.03;4.90;;;15.90;99.90;;;;;;5002448;28;20180;-81
2021/07/31 04:24:11;;;;;;;5.80;4.30;;;16.00;99.90;;;;;;5001616;28;20200;-81
2021/07/31 04:26:37;;;;;;;4.90;3.97;;;15.90;99.90;;;;;;5003180;28;20188;-81
2021/07/31 04:29:03;;;;;;;6.57;4.13;;;16.00;99.90;;;;;;5002267;28;20528;-81
2021/07/31 04:31:28;;;;;;;5.83;4.10;;;16.00;99.90;;;;;;5002690;28;20692;-81
2021/07/31 04:33:54;;;;;;;7.97;4.63;;;16.10;99.90;;;;;;5001150;28;20204;-81
2021/07/31 04:36:20;;;;;;;5.20;4.43;;;16.10;99.90;;;;;;5017949;28;20180;-81
2021/07/31 04:38:46;;;;;;;5.50;4.07;;;16.10;99.90;;;;;;5003028;28;20181;-82
2021/07/31 04:41:11;;;;;;;8.83;4.23;;;16.10;99.90;;;;;;5003065;28;20177;-82
2021/07/31 04:43:37;;;;;;;5.57;4.17;;;16.10;99.90;;;;;;5019063;28;20541;-82
2021/07/31 04:46:03;;;;;;;5.67;4.70;;;16.20;99.90;;;;;;5005567;28;20199;-82
2021/07/31 04:48:29;;;;;;;6.03;4.30;;;16.20;99.90;;;;;;5022210;28;20200;-82
2021/07/31 04:50:59;;;;;;;4.93;4.33;;;16.20;99.90;;;;;;5021900;28;20184;-82
2021/07/31 04:53:26;;;;;;;5.00;3.90;;;16.30;99.90;;;;;;5004839;28;20526;-82
2021/07/31 04:55:53;;;;;;;6.87;4.47;;;16.30;99.90;;;;;;5001798;28;20221;-81
2021/07/31 04:58:18;;;;;;;5.43;4.30;;;16.40;99.90;;;;;;5015548;28;20276;-81
2021/07/31 05:00:46;;;;;;;5.70;4.17;;;16.40;99.90;;;;;;5015787;28;20212;-81
2021/07/31 05:03:12;;;;;;;6.97;4.13;;;16.40;99.90;;;;;;5015857;28;20202;-82
2021/07/31 05:05:38;;;;;;;4.90;3.97;;;16.40;99.90;;;;;;5015928;28;20207;-81
2021/07/31 05:08:04;;;;;;;4.37;3.97;;;16.40;99.90;;;;;;5001369;28;20187;-81
2021/07/31 05:10:30;;;;;;;5.17;4.00;;;16.40;99.90;;;;;;5000944;28;20175;-82
2021/07/31 05:12:55;;;;;;;6.80;3.77;;;16.40;99.90;;;;;;5000807;28;20180;-82
2021/07/31 05:15:21;;;;;;;4.33;3.93;;;16.40;99.90;;;;;;4999379;28;20215;-82
2021/07/31 05:17:46;;;;;;;4.90;4.07;;;16.40;99.90;;;;;;5015242;28;20214;-82
2021/07/31 05:20:12;;;;;;;4.20;3.73;;;16.40;99.90;;;;;;5015586;28;20185;-82
2021/07/31 05:22:38;;;;;;;5.20;4.53;;;16.40;99.90;;;;;;5000840;28;20176;-82
2021/07/31 05:25:04;;;;;;;6.17;3.70;;;16.40;99.90;;;;;;5000301;28;20258;-82
2021/07/31 05:27:29;;;;;;;6.40;4.23;;;16.40;99.90;;;;;;5000191;28;20589;-82
2021/07/31 05:29:55;;;;;;;6.37;4.07;;;16.40;99.90;;;;;;5001199;28;20528;-82
2021/07/31 05:32:21;;;;;;;4.60;3.93;;;16.50;99.90;;;;;;5016826;28;20237;-82
2021/07/31 05:34:46;;;;;;;3.97;3.43;;;16.50;99.90;;;;;;5027852;28;20974;-81
2021/07/31 05:37:12;;;;;;;5.60;3.97;;;16.50;99.90;;;;;;5012691;28;20187;-82
2021/07/31 05:39:38;;;;;;;4.70;3.90;;;16.50;99.90;;;;;;4999387;28;20176;-82
2021/07/31 05:42:05;;;;;;;4.70;3.90;;;16.60;99.90;;;;;;4999202;28;20176;-82
2021/07/31 05:44:34;;;;;;;5.60;4.20;;;16.60;99.90;;;;;;5014538;28;20230;-83
2021/07/31 05:46:59;;;;;;;4.40;4.00;;;16.60;99.90;;;;;;4999297;28;20180;-81
2021/07/31 05:49:29;;;;;;;4.60;3.80;;;16.60;99.90;;;;;;4998841;28;20718;-81
2021/07/31 05:51:55;;;;;;;5.10;4.27;;;16.60;99.90;;;;;;5017666;28;20191;-82
2021/07/31 05:54:20;;;;;;;6.13;4.53;;;16.60;99.90;;;;;;5002364;28;20232;-81
2021/07/31 05:56:46;;;;;;;5.73;4.43;;;16.60;99.90;;;;;;5017831;28;20182;-82
2021/07/31 05:59:12;;;;;;;4.77;4.00;;;16.60;99.90;;;;;;5002535;28;20176;-82
2021/07/31 06:01:37;;;;;;;7.87;3.97;;;16.60;99.90;;;;;;5002346;28;20178;-81
2021/07/31 06:04:03;;;;;;;5.87;4.43;;;16.60;99.90;;;;;;5016851;28;20202;-82
2021/07/31 06:06:29;;;;;;;6.33;4.20;;;16.70;99.90;;;;;;5017911;28;20642;-82
2021/07/31 06:08:54;;;;;;;6.70;3.73;;;16.70;99.90;;;;;;5002292;28;20179;-81
2021/07/31 06:11:20;;;;;;;4.33;3.63;;;16.70;99.90;;;;;;5017479;28;20180;-82
2021/07/31 06:13:46;;;;;;;4.73;4.23;;;16.80;99.90;;;;;;5002282;28;20237;-82
2021/07/31 06:16:11;;;;;;;4.83;4.30;;;16.80;99.90;;;;;;5000787;28;20187;-82
2021/07/31 06:18:39;;;;;;;5.97;4.33;;;16.90;99.90;;;;;;5000792;28;20176;-82
2021/07/31 06:21:05;;;;;;;8.40;4.00;;;17.00;99.90;;;;;;5017287;28;20179;-82
2021/07/31 06:23:31;;;;;;;5.33;4.00;;;17.00;99.90;;;;;;5016773;28;20653;-81
2021/07/31 06:26:01;;;;;;;4.77;4.00;;;17.00;99.90;;;;;;5001519;28;20206;-82
2021/07/31 06:28:27;;;;;;;4.20;3.80;;;17.10;99.90;;;;;;5016912;28;20653;-82
2021/07/31 06:30:53;;;;;;;4.87;3.90;;;17.20;99.90;;;;;;5001989;28;20179;-83
2021/07/31 06:33:19;;;;;;;5.30;4.73;;;17.30;99.90;;;;;;5016646;28;20182;-82
2021/07/31 06:35:44;;;;;;;7.33;5.07;;;17.30;99.90;;;;;;5017160;28;20216;-82
2021/07/31 06:38:12;;;;;;;7.60;4.30;;;17.40;99.90;;;;;;5016955;28;20204;-82
2021/07/31 06:40:37;;;;;;;4.07;3.67;;;17.40;99.90;;;;;;5016925;28;20180;-82
2021/07/31 06:43:03;;;;;;;5.20;4.20;;;17.50;99.90;;;;;;5016882;28;20207;-82
2021/07/31 06:45:29;;;;;;;4.93;3.97;;;17.60;99.90;;;;;;5001840;28;20212;-82
2021/07/31 06:47:54;;;;;;;4.83;3.90;;;17.60;99.90;;;;;;5017741;28;20179;-82
2021/07/31 06:50:20;;;;;;;4.23;3.63;;;17.70;99.90;;;;;;5002920;28;20180;-82
2021/07/31 06:52:46;;;;;;;5.07;3.60;;;17.80;99.90;;;;;;5017023;28;20669;-82
2021/07/31 06:55:12;;;;;;;5.10;3.30;;;17.80;99.90;;;;;;5002134;28;20207;-82
2021/07/31 06:57:37;;;;;;;6.83;3.70;;;17.90;99.90;;;;;;5002707;28;20200;-82
2021/07/31 07:00:04;;;;;;;5.33;3.57;;;18.10;99.90;;;;;;5003489;28;20177;-82
2021/07/31 07:02:29;;;;;;;7.27;2.73;;;18.20;99.90;;;;;;5003278;28;20186;-82
2021/07/31 07:04:55;;;;;;;4.20;2.97;;;18.20;99.90;;;;;;5005816;28;20224;-82
2021/07/31 07:07:21;;;;;;;3.90;2.80;;;18.40;99.90;;;;;;5009118;28;20177;-82
2021/07/31 07:09:46;;;;;;;8.07;3.13;;;18.50;99.90;;;;;;5008007;28;20193;-83
2021/07/31 07:12:12;;;;;;;4.07;2.60;;;18.70;99.90;;;;;;5002446;28;20547;-82
2021/07/31 07:14:38;;;;;;;3.30;2.93;;;18.80;99.90;;;;;;5001451;28;20640;-82
2021/07/31 07:17:05;;;;;;;3.47;2.80;;;19.00;99.90;;;;;;5000873;28;20270;-82
2021/07/31 07:19:30;;;;;;;2.77;2.30;;;19.10;99.90;;;;;;5000685;28;20208;-82
2021/07/31 07:21:56;;;;;;;3.57;2.70;;;19.30;99.90;;;;;;5000662;28;20181;-81
2021/07/31 07:24:22;;;;;;;5.17;2.40;;;19.40;99.90;;;;;;5016297;28;20567;-82
2021/07/31 07:26:47;;;;;;;4.23;2.50;;;19.60;99.90;;;;;;5002000;28;20204;-81
2021/07/31 07:29:13;;;;;;;2.37;2.03;;;19.70;99.90;;;;;;5016985;28;20185;-81
2021/07/31 07:31:39;;;;;;;2.57;2.37;;;19.90;99.90;;;;;;5017684;28;20180;-81
2021/07/31 07:34:04;;;;;;;2.50;2.30;;;20.00;99.90;;;;;;5017993;28;20213;-81
2021/07/31 07:36:30;;;;;;;3.70;2.20;;;20.10;99.90;;;;;;5018451;28;20212;-82
2021/07/31 07:38:56;;;;;;;2.87;2.03;;;20.10;99.90;;;;;;5002932;28;20183;-81
2021/07/31 07:41:21;;;;;;;2.50;2.30;;;20.00;99.90;;;;;;5004847;28;20179;-81
2021/07/31 07:43:47;;;;;;;3.90;2.40;;;20.00;99.90;;;;;;5018215;28;20192;-81
2021/07/31 07:46:17;;;;;;;2.30;2.07;;;19.80;99.90;;;;;;5002287;28;20208;-82
2021/07/31 07:48:44;;;;;;;2.67;2.27;;;19.70;99.90;;;;;;4999808;28;20165;-82
2021/07/31 07:51:10;;;;;;;4.23;2.30;;;19.70;99.90;;;;;;5014621;28;20632;-83
2021/07/31 07:53:36;;;;;;;3.80;2.40;;;19.70;99.90;;;;;;5015315;28;20190;-82
2021/07/31 07:56:03;;;;;;;2.67;2.40;;;19.70;99.90;;;;;;5001882;28;20298;-82
2021/07/31 07:58:28;;;;;;;2.80;2.40;;;19.80;99.90;;;;;;5001254;28;20648;-82
2021/07/31 08:00:54;;;;;;;4.90;2.40;;;19.80;99.90;;;;;;4999927;28;20235;-83
2021/07/31 08:03:20;;;;;;;3.77;2.47;;;19.90;99.90;;;;;;5016300;28;20217;-82
2021/07/31 08:05:46;;;;;;;2.93;2.10;;;20.00;99.90;;;;;;5017128;28;20220;-82
2021/07/31 08:08:11;;;;;;;2.30;2.03;;;20.10;99.90;;;;;;5004564;28;20238;-82
2021/07/31 08:10:38;;;;;;;2.67;2.00;;;20.10;99.90;;;;;;5021674;28;20195;-81
2021/07/31 08:13:04;;;;;;;2.83;2.13;;;20.10;99.90;;;;;;5013630;28;20633;-82
2021/07/31 08:15:30;;;;;;;3.03;2.00;;;20.20;99.90;;;;;;5029613;28;20234;-81
2021/07/31 08:17:56;;;;;;;2.20;2.00;;;20.30;99.90;;;;;;5031028;28;20184;-81
2021/07/31 08:20:22;;;;;;;3.00;1.87;;;20.30;99.90;;;;;;5009750;28;20176;-82
2021/07/31 08:22:48;;;;;;;2.27;2.07;;;20.20;99.90;;;;;;5016939;28;20199;-82
2021/07/31 08:25:14;;;;;;;2.40;1.83;;;20.10;99.90;;;;;;5002021;28;20559;-82
2021/07/31 08:27:40;;;;;;;3.23;2.20;;;20.00;99.90;;;;;;5016633;28;20238;-82
2021/07/31 08:30:07;;;;;;;2.60;1.97;;;19.90;99.90;;;;;;5017112;28;20176;-82
2021/07/31 08:32:33;;;;;;;4.27;2.23;;;19.90;99.90;;;;;;5017077;28;20194;-82
2021/07/31 08:35:00;;;;;;;3.30;2.10;;;20.00;99.90;;;;;;5002151;28;20199;-82
2021/07/31 08:37:27;;;;;;;3.33;2.30;;;20.10;99.90;;;;;;5001660;28;20164;-82
2021/07/31 08:39:52;;;;;;;4.07;2.70;;;20.20;99.90;;;;;;5017149;28;20182;-82
2021/07/31 08:42:18;;;;;;;2.93;2.20;;;20.50;99.90;;;;;;5000388;28;20267;-82
2021/07/31 08:44:44;;;;;;;4.17;2.40;;;20.60;99.90;;;;;;5016534;28;20215;-81
2021/07/31 08:47:13;;;;;;;2.33;2.10;;;20.60;99.90;;;;;;5002301;28;20241;-82
2021/07/31 08:49:44;;;;;;;2.30;2.07;;;20.60;99.90;;;;;;5017320;28;20208;-82
2021/07/31 08:52:12;;;;;;;2.60;2.23;;;20.60;99.90;;;;;;5002397;28;20225;-82
2021/07/31 08:54:39;;;;;;;2.57;2.37;;;20.50;99.90;;;;;;5002754;28;20221;-82
2021/07/31 08:57:06;;;;;;;6.13;2.67;;;20.40;99.90;;;;;;5017643;28;20647;-82
2021/07/31 08:59:32;;;;;;;3.20;2.20;;;20.40;99.90;;;;;;5017667;28;20226;-82
2021/07/31 09:01:58;;;;;;;2.70;2.23;;;20.30;99.90;;;;;;5018270;28;20187;-82
2021/07/31 09:04:24;;;;;;;2.97;2.37;;;20.20;99.90;;;;;;5018383;28;20199;-83
2021/07/31 09:06:50;;;;;;;3.20;2.20;;;20.20;99.90;;;;;;5002524;28;20209;-81
2021/07/31 09:09:27;;;;;;;2.70;2.03;;;20.10;99.90;;;;;;5004235;28;20176;-82
2021/07/31 09:12:00;;;;;;;2.37;2.00;;;19.90;99.90;;;;;;5004893;28;20210;-83
2021/07/31 09:14:27;;;;;;;3.67;2.27;;;19.70;99.90;;;;;;5018335;28;20207;-84
2021/07/31 09:16:53;;;;;;;2.57;2.00;;;19.60;99.90;;;;;;5019280;28;20178;-84
2021/07/31 09:19:21;;;;;;;3.90;2.40;;;19.50;99.90;;;;;;5003554;28;20198;-83
2021/07/31 09:21:49;;;;;;;4.13;2.53;;;19.40;99.90;;;;;;5017943;28;20209;-83
2021/07/31 09:24:23;;;;;;;8.10;2.20;;;19.40;99.90;;;;;;5021809;28;20205;-84
2021/07/31 09:26:54;;;;;;;2.77;2.43;;;19.40;99.90;;;;;;5020298;28;20175;-83
2021/07/31 09:29:30;;;;;;;3.10;2.37;;;19.40;99.90;;;;;;5025015;28;20189;-83
2021/07/31 09:31:58;;;;;;;2.50;2.20;;;19.40;99.90;;;;;;5026250;28;20264;-83
2021/07/31 09:34:43;;;;;;;3.50;2.53;;;19.40;99.90;;;;;;5023179;28;20705;-82
2021/07/31 09:37:17;;;;;;;3.03;2.53;;;19.50;99.90;;;;;;5021398;28;20519;-82
2021/07/31 09:39:55;;;;;;;2.87;2.40;;;19.60;99.90;;;;;;5019220;28;20172;-82
2021/07/31 09:42:32;;;;;;;3.80;2.23;;;19.80;99.90;;;;;;5021460;28;20177;-83
2021/07/31 09:45:00;;;;;;;3.03;2.43;;;20.00;99.90;;;;;;5024915;28;20218;-82
2021/07/31 09:47:26;;;;;;;4.53;2.37;;;20.20;99.90;;;;;;5021603;28;20186;-83
2021/07/31 09:49:53;;;;;;;2.63;2.23;;;20.20;99.90;;;;;;5022008;28;20183;-84
2021/07/31 09:52:21;;;;;;;5.27;2.27;;;20.30;99.90;;;;;;5021468;28;20186;-81
2021/07/31 09:54:48;;;;;;;4.00;2.30;;;20.60;99.90;;;;;;5020058;28;20213;-82
2021/07/31 09:57:14;;;;;;;2.57;2.20;;;20.60;99.90;;;;;;5022336;28;20638;-82
2021/07/31 09:59:52;;;;;;;2.53;1.90;;;20.50;99.90;;;;;;5024855;28;20228;-82
2021/07/31 10:02:19;;;;;;;3.60;2.30;;;20.60;99.90;;;;;;5024553;28;20658;-81
2021/07/31 10:04:47;;;;;;;3.80;2.30;;;20.70;99.90;;;;;;5023730;28;20212;-81
2021/07/31 10:07:14;;;;;;;4.87;2.17;;;20.60;99.90;;;;;;5025990;28;20572;-80
2021/07/31 10:09:49;;;;;;;5.30;2.30;;;20.70;99.90;;;;;;5040190;28;20179;-81
2021/07/31 10:12:22;;;;;;;2.37;2.17;;;20.80;99.90;;;;;;5040296;28;20221;-81
2021/07/31 10:14:49;;;;;;;2.73;2.33;;;21.20;99.90;;;;;;5040707;28;20217;-81
2021/07/31 10:17:15;;;;;;;2.37;2.17;;;21.70;99.90;;;;;;5024845;28;20530;-80
2021/07/31 10:19:43;;;;;;;5.13;2.60;;;21.80;99.90;;;;;;5026041;28;20258;-80
2021/07/31 10:22:10;;;;;;;3.13;2.23;;;21.70;99.90;;;;;;5025647;28;20254;-82
2021/07/31 10:24:53;;;;;;;2.40;2.20;;;21.50;99.90;;;;;;5025680;28;20552;-81
2021/07/31 10:27:24;;;;;;;3.30;2.03;;;21.50;99.90;;;;;;5024468;28;20179;-81
2021/07/31 10:29:59;;;;;;;2.70;2.20;;;21.30;99.90;;;;;;5026167;28;20175;-81
2021/07/31 10:32:32;;;;;;;3.47;2.60;;;21.30;99.90;;;;;;5039606;28;20171;-82
2021/07/31 10:35:04;;;;;;;2.60;2.13;;;21.20;99.90;;;;;;5022455;28;20205;-81
2021/07/31 10:37:30;;;;;;;2.70;2.30;;;21.20;99.90;;;;;;5021708;28;20700;-81
2021/07/31 10:40:00;;;;;;;2.60;2.03;;;21.10;99.90;;;;;;5021159;28;20175;-81
2021/07/31 10:42:46;;;;;;;3.40;1.90;;;21.00;99.90;;;;;;5023243;28;20175;-81
2021/07/31 10:45:15;;;;;;;2.60;2.00;;;20.90;99.90;;;;;;5022727;28;20214;-81
2021/07/31 10:47:47;;;;;;;2.10;1.90;;;20.80;99.90;;;;;;5021346;28;20225;-82
2021/07/31 10:50:25;;;;;;;3.43;2.03;;;20.70;99.90;;;;;;5039151;28;20265;-82
2021/07/31 10:52:54;;;;;;;2.00;1.80;;;20.60;99.90;;;;;;5022530;28;20189;-82
2021/07/31 10:55:24;;;;;;;2.70;2.43;;;20.60;99.90;;;;;;5025704;28;20274;-81
2021/07/31 10:57:53;;;;;;;2.57;2.20;;;20.50;99.90;;;;;;5052159;28;20181;-81
2021/07/31 11:00:37;;;;;;;3.20;2.80;;;20.40;99.90;;;;;;5030529;28;20179;-81
2021/07/31 11:03:23;;;;;;;4.47;2.63;;;20.30;99.90;;;;;;5024420;28;20170;-80
2021/07/31 11:05:49;;;;;;;3.67;2.90;;;20.20;99.90;;;;;;5040292;28;20205;-82
2021/07/31 11:08:24;;;;;;;3.33;3.03;;;20.10;99.90;;;;;;5024533;28;20179;-81
2021/07/31 11:10:51;;;;;;;4.73;2.93;;;20.10;99.90;;;;;;5039670;28;20643;-83
2021/07/31 11:13:17;;;;;;;3.10;2.00;;;20.00;99.90;;;;;;5039983;28;20182;-82
2021/07/31 11:16:02;;;;;;;2.27;2.07;;;20.00;99.90;;;;;;5021970;28;20213;-81
2021/07/31 11:18:42;;;;;;;3.20;2.80;;;20.00;99.90;;;;;;5024007;28;20538;-81
2021/07/31 11:21:08;;;;;;;3.83;2.70;;;19.90;99.90;;;;;;5023163;28;20173;-80
2021/07/31 11:23:44;;;;;;;3.53;2.90;;;20.00;99.90;;;;;;5021829;28;20218;-81
2021/07/31 11:26:10;;;;;;;3.60;2.47;;;20.10;99.90;;;;;;5037672;28;20179;-81
2021/07/31 11:28:38;;;;;;;3.70;3.40;;;20.20;99.90;;;;;;5024115;28;20268;-82
2021/07/31 11:31:30;;;;;;;3.90;3.50;;;20.30;99.90;;;;;;5029100;28;20182;-82
2021/07/31 11:34:01;;;;;;;7.70;3.33;;;20.40;99.90;;;;;;5047564;28;20221;-81
2021/07/31 11:36:28;;;;;;;3.70;3.10;;;20.50;99.90;;;;;;5036179;28;20171;-81
2021/07/31 11:38:54;;;;;;;4.20;2.33;;;20.50;99.90;;;;;;5033913;28;20171;-82
2021/07/31 11:41:20;;;;;;;2.87;2.57;;;20.50;99.90;;;;;;5043805;28;20282;-82
2021/07/31 11:43:54;;;;;;;2.90;2.37;;;20.60;99.90;;;;;;5044081;28;20216;-82
2021/07/31 11:46:39;;;;;;;3.07;2.37;;;20.70;99.90;;;;;;5028889;28;20213;-82
2021/07/31 11:49:23;;;;;;;4.73;2.17;;;20.70;99.90;;;;;;5028407;28;20167;-82
2021/07/31 11:51:49;;;;;;;2.93;2.27;;;20.80;99.90;;;;;;5045326;28;20175;-82
2021/07/31 11:54:15;;;;;;;2.40;2.20;;;20.80;99.90;;;;;;5026279;28;20225;-82
2021/07/31 11:56:42;;;;;;;6.13;4.23;;;20.80;99.90;;;;;;5040640;28;20261;-82
2021/07/31 11:59:09;;;;;;;2.43;2.20;;;20.80;99.90;;;;;;5026357;28;20539;-82
2021/07/31 12:01:36;;;;;;;2.67;2.30;;;20.80;99.90;;;;;;5040732;28;20215;-82
2021/07/31 12:04:03;;;;;;;4.13;2.33;;;20.90;99.90;;;;;;5041471;28;20199;-82
2021/07/31 12:06:44;;;;;;;5.40;3.23;;;21.00;99.90;;;;;;5026009;28;20187;-82
2021/07/31 12:09:20;;;;;;;4.80;2.50;;;21.20;99.90;;;;;;5041089;28;20254;-82
2021/07/31 12:11:47;;;;;;;4.03;2.53;;;21.30;99.90;;;;;;5040864;28;20530;-83
2021/07/31 12:15:07;;;;;;;3.60;2.80;;;21.50;99.90;;;;;;5025729;28;20569;-82
2021/07/31 12:17:33;;;;;;;3.73;2.40;;;21.60;99.90;;;;;;4983966;28;20184;-82
2021/07/31 12:19:59;;;;;;;7.03;2.83;;;21.60;99.90;;;;;;5022294;28;20515;-82
2021/07/31 12:22:30;;;;;;;4.50;3.93;;;21.50;99.90;;;;;;5040516;28;20242;-82
2021/07/31 12:25:08;;;;;;;3.23;2.40;;;21.50;99.90;;;;;;5025034;28;20205;-82
2021/07/31 12:27:59;;;;;;;3.60;2.60;;;21.30;99.90;;;;;;5040272;28;20208;-82
2021/07/31 12:30:28;;;;;;;4.43;2.67;;;21.20;99.90;;;;;;5025998;28;20190;-82
2021/07/31 12:33:14;;;;;;;3.67;2.77;;;21.00;99.90;;;;;;5026161;28;20521;-82
2021/07/31 12:35:45;;;;;;;3.60;2.30;;;20.90;99.90;;;;;;5025183;28;20227;-82
2021/07/31 12:38:14;;;;;;;5.27;2.40;;;20.80;99.90;;;;;;5041134;28;20174;-82
2021/07/31 12:40:40;;;;;;;2.70;2.27;;;20.70;99.90;;;;;;5026555;28;20180;-82
2021/07/31 12:43:12;;;;;;;5.93;2.20;;;20.80;99.90;;;;;;5041511;28;20266;-82
2021/07/31 12:45:38;;;;;;;2.20;2.00;;;21.00;99.90;;;;;;5041409;28;20226;-82
2021/07/31 12:48:04;;;;;;;2.37;2.00;;;21.00;99.90;;;;;;5025805;28;20234;-82
2021/07/31 12:50:32;;;;;;;3.77;2.10;;;21.00;99.90;;;;;;5025443;28;20240;-82